.
WxDataArchive / Data Records for 2012-04-04
2012-04-03 April 2012 2012-04-05

Data Records for Wednesday, 04 April 2012

Time	Temp	Chill	HIndex	Humid	Dewpt	 Wind 	HiWind	WindDir	Rain 	Barom 
-----	----	-----	------	-----	-----	------	------	-------	-----	----- 
00:00	57.2	57.2	57.2	77	50.1	0	1	90	0.00	29.854 
00:05	57.0	57.0	57.0	77	49.9	0	1	90	0.00	29.854 
00:10	56.9	56.9	56.9	77	49.8	0	2	90	0.00	29.854 
00:15	56.7	56.7	56.7	77	49.6	0	0	---	0.00	29.856 
00:20	56.6	56.6	56.6	77	49.5	0	1	90	0.00	29.856 
00:25	56.5	56.5	56.5	77	49.4	0	0	---	0.00	29.856 
00:30	56.3	56.3	56.3	77	49.2	0	0	---	0.00	29.854 
00:35	56.2	56.2	56.2	77	49.1	0	0	---	0.00	29.854 
00:40	55.9	55.9	55.9	78	49.1	0	0	---	0.00	29.854 
00:45	55.7	55.7	55.7	78	48.9	0	1	90	0.00	29.859 
00:50	55.6	55.6	55.6	78	48.8	0	0	---	0.00	29.859 
00:55	55.6	55.6	55.6	78	48.8	0	0	---	0.00	29.859 
01:00	55.4	55.4	55.4	78	48.7	0	0	---	0.00	29.865 
01:05	55.3	55.3	55.3	78	48.6	0	1	90	0.00	29.865 
01:10	55.1	55.1	55.1	78	48.4	0	2	90	0.00	29.865 
01:15	55.1	55.1	55.1	79	48.7	0	0	---	0.00	29.863 
01:20	55.0	55.0	55.0	79	48.6	0	0	---	0.00	29.863 
01:25	54.8	54.8	54.8	79	48.4	0	1	90	0.00	29.863 
01:30	54.7	54.7	54.7	80	48.7	0	0	---	0.00	29.876 
01:35	54.5	54.5	54.5	80	48.5	0	0	---	0.00	29.876 
01:40	54.4	54.4	54.4	80	48.4	0	1	90	0.00	29.876 
01:45	54.2	54.2	54.2	81	48.5	0	2	90	0.00	29.862 
01:50	54.2	54.2	54.2	80	48.2	0	0	---	0.00	29.862 
01:55	54.2	54.2	54.2	81	48.5	0	1	90	0.00	29.862 
02:00	54.2	54.2	54.2	81	48.5	0	2	90	0.00	29.868 
02:05	54.2	54.2	54.2	81	48.5	0	0	---	0.00	29.868 
02:10	54.1	54.1	54.1	81	48.4	0	1	90	0.00	29.868 
02:15	54.1	54.1	54.1	80	48.1	0	1	90	0.00	29.864 
02:20	53.9	53.9	53.9	80	47.9	0	2	90	0.00	29.864 
02:25	53.9	53.9	53.9	80	47.9	0	3	68	0.00	29.864 
02:30	53.8	53.8	53.8	80	47.8	0	2	68	0.00	29.861 
02:35	53.8	53.8	53.8	80	47.8	0	3	90	0.00	29.861 
02:40	53.6	53.6	53.6	80	47.6	0	1	90	0.00	29.861 
02:45	53.5	53.5	53.5	80	47.5	0	1	90	0.00	29.858 
02:50	53.5	53.5	53.5	80	47.5	0	2	90	0.00	29.858 
02:55	53.3	53.3	53.3	80	47.3	0	1	90	0.00	29.858 
03:00	53.2	53.2	53.2	80	47.2	0	1	90	0.00	29.862 
03:05	53.2	53.2	53.2	80	47.2	0	1	90	0.00	29.862 
03:10	53.1	53.1	53.1	80	47.1	0	0	---	0.00	29.862 
03:15	52.9	52.9	52.9	80	46.9	0	0	---	0.00	29.863 
03:20	52.8	52.8	52.8	80	46.8	0	0	---	0.00	29.863 
03:25	52.5	52.5	52.5	80	46.5	0	0	---	0.00	29.863 
03:30	52.3	52.3	52.3	81	46.6	0	0	---	0.00	29.862 
03:35	52.2	52.2	52.2	81	46.5	0	0	---	0.00	29.862 
03:40	52.0	52.0	52.0	81	46.4	0	0	---	0.00	29.862 
03:45	52.0	52.0	52.0	82	46.7	0	0	---	0.00	29.862 
03:50	52.0	52.0	52.0	82	46.7	0	0	---	0.00	29.862 
03:55	52.0	52.0	52.0	83	47.0	0	0	---	0.00	29.862 
04:00	52.0	52.0	52.0	83	47.0	0	0	---	0.00	29.861 
04:05	52.2	52.2	52.2	83	47.2	0	0	---	0.00	29.861 
04:10	52.2	52.2	52.2	83	47.2	0	0	---	0.00	29.861 
04:15	52.2	52.2	52.2	83	47.2	0	0	---	0.00	29.855 
04:20	52.2	52.2	52.2	82	46.9	0	0	---	0.00	29.855 
04:25	52.0	52.0	52.0	82	46.7	0	0	---	0.00	29.855 
04:30	52.0	52.0	52.0	82	46.7	0	0	---	0.00	29.859 
04:35	52.0	52.0	52.0	82	46.7	0	1	90	0.00	29.859 
04:40	52.0	52.0	52.0	81	46.4	0	0	---	0.00	29.859 
04:45	52.2	52.2	52.2	81	46.5	0	0	---	0.00	29.861 
04:50	52.2	52.2	52.2	81	46.5	0	0	---	0.00	29.861 
04:55	52.2	52.2	52.2	81	46.5	0	0	---	0.00	29.861 
05:00	52.0	52.0	52.0	81	46.4	0	0	---	0.00	29.860 
05:05	52.0	52.0	52.0	81	46.4	0	0	---	0.00	29.860 
05:10	51.9	51.9	51.9	81	46.3	0	0	---	0.00	29.860 
05:15	51.6	51.6	51.6	81	46.0	0	0	---	0.00	29.859 
05:20	51.4	51.4	51.4	82	46.1	0	0	---	0.00	29.859 
05:25	51.3	51.3	51.3	82	46.0	0	0	---	0.00	29.859 
05:30	51.1	51.1	51.1	82	45.8	0	2	90	0.00	29.858 
05:35	51.0	51.0	51.0	83	46.0	0	1	90	0.00	29.858 
05:40	51.0	51.0	51.0	83	46.0	0	1	90	0.00	29.858 
05:45	51.0	51.0	51.0	83	46.0	0	1	90	0.00	29.855 
05:50	51.0	51.0	51.0	83	46.0	0	2	90	0.00	29.855 
05:55	51.0	51.0	51.0	84	46.3	0	2	90	0.00	29.855 
06:00	51.1	51.1	51.1	84	46.4	0	2	90	0.00	29.854 
06:05	51.1	51.1	51.1	84	46.4	0	1	90	0.00	29.854 
06:10	51.0	51.0	51.0	84	46.3	0	1	90	0.00	29.854 
06:15	51.0	51.0	51.0	84	46.3	0	1	90	0.00	29.859 
06:20	51.0	51.0	51.0	85	46.7	0	1	90	0.00	29.859 
06:25	50.8	50.8	50.8	85	46.5	0	0	---	0.00	29.859 
06:30	50.7	50.7	50.7	85	46.4	0	1	90	0.00	29.864 
06:35	50.5	50.5	50.5	85	46.2	0	1	90	0.00	29.864 
06:40	50.4	50.4	50.4	85	46.1	0	2	90	0.00	29.864 
06:45	50.2	50.2	50.2	85	45.9	0	4	0	0.00	29.875 
06:50	50.2	50.2	50.2	85	45.9	0	3	45	0.00	29.875 
06:55	50.1	50.1	50.1	85	45.8	0	2	45	0.00	29.875 
07:00	49.9	49.9	49.9	84	45.3	0	2	45	0.00	29.882 
07:05	49.8	49.8	49.8	84	45.2	0	0	---	0.00	29.882 
07:10	49.6	49.6	49.6	84	45.0	0	3	112	0.00	29.882 
07:15	49.5	49.5	49.5	84	44.9	0	2	112	0.00	29.881 
07:20	49.4	49.4	49.4	83	44.5	1	4	112	0.00	29.881 
07:25	49.2	49.2	49.2	83	44.3	0	3	112	0.00	29.881 
07:30	49.1	49.1	49.1	82	43.8	0	3	112	0.00	29.894 
07:35	48.9	48.9	48.9	82	43.6	0	3	112	0.00	29.894 
07:40	48.9	48.9	48.9	82	43.6	0	3	112	0.00	29.894 
07:45	48.9	48.9	48.9	82	43.6	0	2	112	0.00	29.897 
07:50	48.8	48.8	48.8	81	43.2	0	2	68	0.00	29.897 
07:55	48.8	48.8	48.8	81	43.2	0	4	68	0.00	29.897 
08:00	48.8	48.8	48.8	81	43.2	1	5	45	0.00	29.894 
08:05	48.8	48.8	48.8	80	42.9	1	4	68	0.00	29.894 
08:10	48.8	48.8	48.8	79	42.6	1	4	112	0.00	29.894 
08:15	48.8	48.8	48.8	79	42.6	1	4	90	0.00	29.900 
08:20	48.9	48.9	48.9	78	42.3	1	4	90	0.00	29.900 
08:25	49.2	49.2	49.2	77	42.3	1	4	45	0.00	29.900 
08:30	49.4	49.4	49.4	76	42.2	2	6	112	0.00	29.914 
08:35	49.5	49.5	49.5	75	41.9	1	3	68	0.00	29.914 
08:40	49.6	49.6	49.6	75	42.0	1	5	112	0.00	29.914 
08:45	49.8	49.8	49.8	74	41.9	1	6	68	0.00	29.916 
08:50	49.9	49.9	49.9	74	41.9	1	5	90	0.00	29.916 
08:55	49.9	49.9	49.9	74	41.9	2	5	112	0.00	29.916 
09:00	49.9	49.9	49.9	73	41.6	1	7	112	0.00	29.918 
09:05	50.1	50.1	50.1	73	41.8	2	6	90	0.00	29.918 
09:10	50.2	50.2	50.2	73	41.9	1	6	22	0.00	29.918 
09:15	50.1	50.1	50.1	71	41.1	2	6	45	0.00	29.920 
09:20	50.1	50.1	50.1	71	41.1	1	6	112	0.00	29.920 
09:25	50.2	50.2	50.2	71	41.2	1	6	45	0.00	29.920 
09:30	50.4	50.4	50.4	71	41.4	2	9	135	0.00	29.932 
09:35	50.5	50.5	50.5	71	41.5	2	6	112	0.00	29.932 
09:40	50.7	50.7	50.7	71	41.6	2	9	135	0.00	29.932 
09:45	51.0	51.0	51.0	71	41.9	2	6	112	0.00	29.931 
09:50	51.3	51.3	51.3	70	41.9	3	7	112	0.00	29.931 
09:55	51.3	51.3	51.3	70	41.9	2	8	68	0.00	29.931 
10:00	51.6	51.6	51.6	70	42.1	3	7	112	0.00	29.920 
10:05	51.9	51.9	51.9	70	42.4	2	7	112	0.00	29.920 
10:10	52.5	52.5	52.5	70	43.0	1	7	90	0.00	29.920 
10:15	52.9	52.9	52.9	66	41.9	2	7	112	0.00	29.928 
10:20	53.2	53.2	53.2	65	41.7	2	7	112	0.00	29.928 
10:25	53.5	53.5	53.5	62	40.8	1	5	0	0.00	29.928 
10:30	53.9	53.9	53.9	60	40.3	3	8	112	0.00	29.928 
10:35	53.9	53.9	53.9	58	39.5	3	7	112	0.00	29.928 
10:40	54.4	54.4	54.4	58	39.9	2	5	90	0.00	29.928 
10:45	54.8	54.8	54.8	56	39.4	2	10	158	0.00	29.920 
10:50	55.3	55.3	55.3	55	39.4	1	5	135	0.00	29.920 
10:55	55.4	55.4	55.4	52	38.1	2	7	112	0.00	29.920 
11:00	55.6	55.6	55.6	52	38.3	2	12	90	0.00	29.914 
11:05	55.7	55.7	55.7	55	39.8	2	11	68	0.00	29.914 
11:10	55.9	55.9	55.9	50	37.5	1	7	22	0.00	29.914 
11:15	56.0	56.0	56.0	49	37.1	2	5	45	0.00	29.919 
11:20	56.3	56.3	56.3	50	37.9	1	4	112	0.00	29.919 
11:25	56.6	56.6	56.6	47	36.6	2	6	112	0.00	29.919 
11:30	56.9	56.9	56.9	48	37.4	1	5	112	0.00	29.918 
11:35	57.0	57.0	57.0	46	36.4	2	11	90	0.00	29.918 
11:40	57.2	57.2	57.2	46	36.6	3	7	112	0.00	29.918 
11:45	57.3	57.3	57.3	49	38.3	1	7	112	0.00	29.919 
11:50	57.8	57.8	57.8	47	37.7	1	5	248	0.00	29.919 
11:55	58.0	58.0	58.0	45	36.8	2	6	112	0.00	29.919 
12:00	58.0	58.0	58.0	44	36.2	2	7	90	0.00	29.916 
12:05	58.3	58.3	58.3	42	35.3	2	7	90	0.00	29.916 
12:10	58.3	58.3	58.3	44	36.5	2	6	90	0.00	29.916 
12:15	58.3	58.3	58.3	42	35.3	2	7	112	0.00	29.923 
12:20	58.7	58.7	58.7	45	37.4	1	5	112	0.00	29.923 
12:25	59.0	59.0	59.0	46	38.2	1	5	90	0.00	29.923 
12:30	59.2	59.2	59.2	43	36.7	0	2	0	0.00	29.918 
12:35	59.3	59.3	59.3	43	36.8	2	9	112	0.00	29.918 
12:40	59.6	59.6	59.6	43	37.1	2	7	112	0.00	29.918 
12:45	60.2	60.2	60.2	45	38.8	1	6	112	0.00	29.914 
12:50	60.4	60.4	60.4	38	34.7	2	9	90	0.00	29.914 
12:55	60.2	60.2	60.2	38	34.5	2	9	90	0.00	29.914 
13:00	60.5	60.5	60.5	41	36.7	1	3	292	0.00	29.911 
13:05	60.7	60.7	60.7	36	33.6	1	5	90	0.00	29.911 
13:10	60.5	60.5	60.5	38	34.8	1	7	22	0.00	29.911 
13:15	60.5	60.5	60.5	42	37.3	1	3	22	0.00	29.904 
13:20	60.9	60.9	60.9	37	34.5	2	5	90	0.00	29.904 
13:25	61.0	61.0	61.0	37	34.5	1	5	112	0.00	29.904 
13:30	61.2	61.2	61.2	37	34.7	1	4	90	0.00	29.900 
13:35	61.3	61.3	61.3	33	32.0	1	3	270	0.00	29.900 
13:40	61.6	61.6	61.6	36	34.4	2	6	112	0.00	29.900 
13:45	61.6	61.6	61.6	34	33.0	2	11	90	0.00	29.896 
13:50	61.6	61.6	61.6	34	33.0	2	7	112	0.00	29.896 
13:55	61.8	61.8	61.8	35	33.9	2	6	68	0.00	29.896 
14:00	61.8	61.8	61.8	35	33.9	1	5	90	0.00	29.892 
14:05	62.1	62.1	62.1	36	34.8	1	4	90	0.00	29.892 
14:10	62.4	62.4	62.4	33	32.9	1	5	112	0.00	29.892 
14:15	62.6	62.6	62.6	39	37.3	0	5	112	0.00	29.888 
14:20	62.7	62.7	62.7	31	31.6	2	6	112	0.00	29.888 
14:25	62.9	62.9	62.9	32	32.6	1	4	112	0.00	29.888 
14:30	63.1	63.1	63.1	37	36.4	1	4	90	0.00	29.882 
14:35	63.1	63.1	63.1	33	33.5	1	7	315	0.00	29.882 
14:40	63.2	63.2	63.2	30	31.3	1	6	135	0.00	29.882 
14:45	63.2	63.2	63.2	31	32.1	1	6	112	0.00	29.874 
14:50	63.1	63.1	63.1	30	31.2	3	7	90	0.00	29.874 
14:55	62.7	62.7	62.7	28	29.1	2	7	112	0.00	29.874 
15:00	62.7	62.7	62.7	32	32.4	2	6	90	0.00	29.868 
15:05	63.1	63.1	63.1	34	34.3	0	3	338	0.00	29.868 
15:10	63.4	63.4	63.4	29	30.6	1	6	338	0.00	29.868 
15:15	63.7	63.7	63.7	34	34.8	1	5	112	0.00	29.860 
15:20	63.9	63.9	63.9	31	32.7	1	3	112	0.00	29.860 
15:25	64.0	64.0	64.0	33	34.3	1	4	112	0.00	29.860 
15:30	63.9	63.9	63.9	32	33.5	1	4	68	0.00	29.852 
15:35	63.7	63.7	63.7	34	34.8	1	7	22	0.00	29.852 
15:40	63.7	63.7	63.7	31	32.5	1	6	0	0.00	29.852 
15:45	63.9	63.9	63.9	33	34.2	0	1	68	0.00	29.854 
15:50	63.9	63.9	63.9	31	32.7	0	1	68	0.00	29.854 
15:55	63.9	63.9	63.9	31	32.7	1	4	45	0.00	29.854 
16:00	63.7	63.7	63.7	31	32.5	0	2	45	0.00	29.845 
16:05	63.7	63.7	63.7	31	32.5	1	5	0	0.00	29.845 
16:10	63.9	63.9	63.9	31	32.7	2	7	90	0.00	29.845 
16:15	63.5	63.5	63.5	29	30.7	2	7	112	0.00	29.842 
16:20	63.5	63.5	63.5	33	33.9	1	6	112	0.00	29.842 
16:25	63.5	63.5	63.5	33	33.9	0	2	68	0.00	29.842 
16:30	63.7	63.7	63.7	33	34.1	1	4	90	0.00	29.840 
16:35	63.7	63.7	63.7	32	33.3	1	6	45	0.00	29.840 
16:40	63.5	63.5	63.5	32	33.1	2	6	135	0.00	29.840 
16:45	63.4	63.4	63.4	31	32.2	0	4	112	0.00	29.834 
16:50	63.4	63.4	63.4	31	32.2	1	3	112	0.00	29.834 
16:55	63.4	63.4	63.4	31	32.2	1	3	90	0.00	29.834 
17:00	63.4	63.4	63.4	31	32.2	2	5	112	0.00	29.827 
17:05	63.4	63.4	63.4	33	33.8	1	6	112	0.00	29.827 
17:10	63.5	63.5	63.5	30	31.5	1	5	112	0.00	29.827 
17:15	63.5	63.5	63.5	30	31.5	1	6	112	0.00	29.823 
17:20	63.5	63.5	63.5	30	31.5	1	4	112	0.00	29.823 
17:25	63.5	63.5	63.5	30	31.5	1	5	135	0.00	29.823 
17:30	63.4	63.4	63.4	28	29.7	2	6	112	0.00	29.823 
17:35	63.4	63.4	63.4	30	31.4	0	3	90	0.00	29.823 
17:40	63.4	63.4	63.4	29	30.6	1	4	68	0.00	29.823 
17:45	63.2	63.2	63.2	27	28.7	1	5	90	0.00	29.828 
17:50	63.2	63.2	63.2	30	31.3	0	4	90	0.00	29.828 
17:55	63.1	63.1	63.1	28	29.5	0	3	315	0.00	29.828 
18:00	63.1	63.1	63.1	30	31.2	1	4	90	0.00	29.828 
18:05	62.7	62.7	62.7	31	31.6	1	4	338	0.00	29.828 
18:10	62.6	62.6	62.6	29	29.9	1	3	338	0.00	29.828 
18:15	62.3	62.3	62.3	29	29.6	1	4	112	0.00	29.834 
18:20	62.1	62.1	62.1	32	31.9	0	2	90	0.00	29.834 
18:25	62.0	62.0	62.0	32	31.8	1	4	90	0.00	29.834 
18:30	61.8	61.8	61.8	32	31.6	0	2	90	0.00	29.839 
18:35	61.6	61.6	61.6	31	30.7	0	2	180	0.00	29.839 
18:40	61.5	61.5	61.5	32	31.4	0	2	180	0.00	29.839 
18:45	61.3	61.3	61.3	31	30.4	1	6	112	0.00	29.840 
18:50	61.2	61.2	61.2	30	29.5	1	7	45	0.00	29.840 
18:55	61.0	61.0	61.0	32	30.9	0	2	90	0.00	29.840 
19:00	60.9	60.9	60.9	33	31.6	0	1	90	0.00	29.841 
19:05	60.7	60.7	60.7	33	31.4	0	2	90	0.00	29.841 
19:10	60.4	60.4	60.4	33	31.2	0	3	112	0.00	29.841 
19:15	60.2	60.2	60.2	33	31.0	1	4	112	0.00	29.850 
19:20	59.9	59.9	59.9	35	32.2	0	2	112	0.00	29.850 
19:25	59.6	59.6	59.6	35	31.9	1	2	112	0.00	29.850 
19:30	59.5	59.5	59.5	36	32.5	0	2	0	0.00	29.846 
19:35	59.2	59.2	59.2	37	32.9	0	3	22	0.00	29.846 
19:40	58.9	58.9	58.9	38	33.3	0	1	22	0.00	29.846 
19:45	58.6	58.6	58.6	37	32.4	0	1	22	0.00	29.844 
19:50	58.1	58.1	58.1	38	32.6	0	1	22	0.00	29.844 
19:55	57.8	57.8	57.8	37	31.7	0	1	22	0.00	29.844 
20:00	57.5	57.5	57.5	38	32.1	0	1	22	0.00	29.844 
20:05	57.2	57.2	57.2	39	32.5	0	2	22	0.00	29.844 
20:10	56.7	56.7	56.7	40	32.7	0	2	22	0.00	29.844 
20:15	56.5	56.5	56.5	41	33.1	0	2	22	0.00	29.850 
20:20	56.0	56.0	56.0	42	33.2	0	0	---	0.00	29.850 
20:25	55.6	55.6	55.6	42	32.9	0	0	---	0.00	29.850 
20:30	55.1	55.1	55.1	43	33.0	0	1	22	0.00	29.857 
20:35	54.7	54.7	54.7	44	33.2	0	0	---	0.00	29.857 
20:40	54.2	54.2	54.2	44	32.8	0	0	---	0.00	29.857 
20:45	53.9	53.9	53.9	45	33.1	0	0	---	0.00	29.862 
20:50	53.5	53.5	53.5	45	32.7	0	0	---	0.00	29.862 
20:55	53.1	53.1	53.1	47	33.4	0	0	---	0.00	29.862 
21:00	52.6	52.6	52.6	48	33.5	0	0	---	0.00	29.865 
21:05	52.3	52.3	52.3	49	33.7	0	0	---	0.00	29.865 
21:10	51.9	51.9	51.9	49	33.3	0	0	---	0.00	29.865 
21:15	51.6	51.6	51.6	48	32.6	0	0	---	0.00	29.869 
21:20	51.3	51.3	51.3	48	32.3	0	0	---	0.00	29.869 
21:25	51.1	51.1	51.1	48	32.1	0	0	---	0.00	29.869 
21:30	50.8	50.8	50.8	49	32.3	0	0	---	0.00	29.878 
21:35	50.5	50.5	50.5	50	32.6	0	0	---	0.00	29.878 
21:40	50.2	50.2	50.2	51	32.8	0	0	---	0.00	29.878 
21:45	49.9	49.9	49.9	52	33.0	0	0	---	0.00	29.881 
21:50	49.6	49.6	49.6	53	33.2	0	0	---	0.00	29.881 
21:55	49.4	49.4	49.4	53	33.0	0	0	---	0.00	29.881 
22:00	49.1	49.1	49.1	53	32.7	0	0	---	0.00	29.883 
22:05	48.8	48.8	48.8	52	32.0	0	0	---	0.00	29.883 
22:10	48.6	48.6	48.6	51	31.3	0	0	---	0.00	29.883 
22:15	48.5	48.5	48.5	50	30.7	0	1	22	0.00	29.878 
22:20	48.6	48.6	48.6	49	30.3	0	2	22	0.00	29.878 
22:25	49.2	49.2	49.2	49	30.9	1	6	45	0.00	29.878 
22:30	50.5	50.5	50.5	47	31.0	3	6	90	0.00	29.878 
22:35	51.1	51.1	51.1	48	32.1	2	4	90	0.00	29.878 
22:40	51.1	51.1	51.1	48	32.1	2	6	90	0.00	29.878 
22:45	51.0	51.0	51.0	50	33.0	1	6	112	0.00	29.878 
22:50	50.7	50.7	50.7	50	32.7	2	5	90	0.00	29.878 
22:55	50.2	50.2	50.2	51	32.8	2	5	90	0.00	29.878 
23:00	49.9	49.9	49.9	52	33.0	1	3	90	0.00	29.877 
23:05	49.6	49.6	49.6	53	33.2	1	3	90	0.00	29.877 
23:10	49.4	49.4	49.4	54	33.5	1	3	90	0.00	29.877 
23:15	49.1	49.1	49.1	54	33.2	1	4	90	0.00	29.881 
23:20	48.8	48.8	48.8	54	32.9	1	3	112	0.00	29.881 
23:25	48.6	48.6	48.6	54	32.7	1	6	90	0.00	29.881 
23:30	48.3	48.3	48.3	55	32.9	1	3	90	0.00	29.883 
23:35	48.2	48.2	48.2	55	32.8	1	5	90	0.00	29.883 
23:40	48.0	48.0	48.0	56	33.1	1	4	112	0.00	29.883 
23:45	47.7	47.7	47.7	56	32.8	1	4	90	0.00	29.892 
23:50	47.6	47.6	47.6	57	33.1	1	3	90	0.00	29.892 
23:55	47.3	47.3	47.3	57	32.8	2	5	90	0.00	29.892 

CoCoRaHS
IN-AL-39
A2 Web Hosting
Creative Commons License
GoDaddy
search engine by freefind advanced

loaded 2018-12-19 10:22:01 • last modified 2010-11-18 10:43:29
Privacy PolicyDisclaimer
• wx.awcolley.com is powered by PmWiki v.2002016 •
• all content (unless otherwise noted) © 2018 A W Colley